TAP1689 LPPT-LPMA
Flight info
| Callsign | TAP1689 |
|---|---|
| Flight time | 1h 38m |
| Altitude | 39000 |
| Route | ULVOT DCT GALPA DCT RAKUN |
| Aircraft | A339/H-SADE1E2E3GHIJ3J5M1P2RWXY/LB2D1 |
Departure
| Time | 2026-05-05 11:55 |
|---|---|
| Airport | Lisbon Humberto Delgado Airport (LPPT) |
Arrival
| Time | 2026-05-05 13:33 |
|---|---|
| Airport | Cristiano Ronaldo International Airport (LPMA) |
| Time | Latitude | Longitude | Altitude | Speed | Heading |
|---|---|---|---|---|---|
| 2026-05-05 11:32 | 38.77095 | -9.13799 | 357 ft | 0 kts | 198° |
| 2026-05-05 11:46 | 38.77097 | -9.13798 | 357 ft | 2 kts | 199° |
| 2026-05-05 11:46 | 38.77121 | -9.13787 | 359 ft | 4 kts | 207° |
| 2026-05-05 11:46 | 38.77145 | -9.13771 | 365 ft | 4 kts | 216° |
| 2026-05-05 11:46 | 38.77166 | -9.13751 | 362 ft | 4 kts | 227° |
| 2026-05-05 11:47 | 38.77183 | -9.13725 | 362 ft | 4 kts | 243° |
| 2026-05-05 11:47 | 38.77192 | -9.13702 | 363 ft | 0 kts | 258° |
| 2026-05-05 11:50 | 38.77190 | -9.13712 | 363 ft | 3 kts | 258° |
| 2026-05-05 11:50 | 38.77183 | -9.13753 | 362 ft | 6 kts | 258° |
| 2026-05-05 11:50 | 38.77172 | -9.13820 | 361 ft | 9 kts | 258° |
| 2026-05-05 11:51 | 38.77140 | -9.13894 | 364 ft | 11 kts | 221° |
| 2026-05-05 11:51 | 38.77053 | -9.13940 | 364 ft | 16 kts | 202° |
| 2026-05-05 11:51 | 38.76928 | -9.14008 | 360 ft | 23 kts | 203° |
| 2026-05-05 11:51 | 38.76771 | -9.14090 | 356 ft | 25 kts | 202° |
| 2026-05-05 11:52 | 38.76610 | -9.14178 | 352 ft | 25 kts | 201° |
| 2026-05-05 11:52 | 38.76535 | -9.14219 | 351 ft | 9 kts | 208° |
| 2026-05-05 11:52 | 38.76528 | -9.14280 | 347 ft | 8 kts | 286° |
| 2026-05-05 11:52 | 38.76532 | -9.14291 | 353 ft | 0 kts | 296° |
| 2026-05-05 11:53 | 38.76533 | -9.14292 | 352 ft | 1 kts | 296° |
| 2026-05-05 11:53 | 38.76543 | -9.14319 | 352 ft | 7 kts | 296° |
| 2026-05-05 11:54 | 38.76580 | -9.14399 | 353 ft | 13 kts | 317° |
| 2026-05-05 11:54 | 38.76643 | -9.14388 | 349 ft | 8 kts | 21° |
| 2026-05-05 11:54 | 38.76646 | -9.14387 | 352 ft | 0 kts | 21° |
| 2026-05-05 11:54 | 38.76816 | -9.14298 | 355 ft | 62 kts | 22° |
| 2026-05-05 11:55 | 38.77431 | -9.13973 | 373 ft | 127 kts | 22° |
| 2026-05-05 11:55 | 38.78409 | -9.13456 | 495 ft | 165 kts | 20° |
| 2026-05-05 11:55 | 38.79495 | -9.12830 | 999 ft | 177 kts | 20° |
| 2026-05-05 11:55 | 38.80599 | -9.12163 | 1728 ft | 179 kts | 22° |
| 2026-05-05 11:56 | 38.81513 | -9.10972 | 2150 ft | 197 kts | 58° |
| 2026-05-05 11:56 | 38.82036 | -9.09322 | 2744 ft | 203 kts | 68° |
| 2026-05-05 11:56 | 38.82489 | -9.07538 | 3129 ft | 218 kts | 68° |
| 2026-05-05 11:56 | 38.82934 | -9.05603 | 3440 ft | 235 kts | 76° |
| 2026-05-05 11:57 | 38.82867 | -9.03439 | 3760 ft | 253 kts | 105° |
| 2026-05-05 11:57 | 38.81990 | -9.01413 | 4009 ft | 271 kts | 132° |
| 2026-05-05 11:57 | 38.80401 | -9.00029 | 4387 ft | 280 kts | 161° |
| 2026-05-05 11:57 | 38.78508 | -8.99709 | 5018 ft | 277 kts | 188° |
| 2026-05-05 11:58 | 38.76704 | -9.00482 | 5604 ft | 278 kts | 214° |
| 2026-05-05 11:58 | 38.75327 | -9.02191 | 6166 ft | 276 kts | 237° |
| 2026-05-05 11:58 | 38.74223 | -9.04216 | 6703 ft | 280 kts | 236° |
| 2026-05-05 11:58 | 38.72955 | -9.06125 | 7284 ft | 282 kts | 228° |
| 2026-05-05 11:59 | 38.71485 | -9.07811 | 7867 ft | 285 kts | 221° |
| 2026-05-05 11:59 | 38.69883 | -9.09332 | 8446 ft | 289 kts | 218° |
| 2026-05-05 11:59 | 38.68199 | -9.10786 | 8982 ft | 293 kts | 216° |
| 2026-05-05 11:59 | 38.66484 | -9.12215 | 9569 ft | 295 kts | 216° |
| 2026-05-05 12:00 | 38.64753 | -9.13654 | 10145 ft | 298 kts | 217° |
| 2026-05-05 12:00 | 38.62988 | -9.15132 | 10433 ft | 311 kts | 217° |
| 2026-05-05 12:00 | 38.61136 | -9.16698 | 10608 ft | 328 kts | 217° |
| 2026-05-05 12:00 | 38.59184 | -9.18351 | 10776 ft | 343 kts | 217° |
| 2026-05-05 12:01 | 38.57175 | -9.20050 | 11204 ft | 348 kts | 217° |
| 2026-05-05 12:01 | 38.55151 | -9.21757 | 11775 ft | 349 kts | 217° |
| 2026-05-05 12:01 | 38.53118 | -9.23471 | 12306 ft | 352 kts | 217° |
| 2026-05-05 12:01 | 38.51072 | -9.25197 | 12854 ft | 353 kts | 217° |
| 2026-05-05 12:02 | 38.49016 | -9.26930 | 13393 ft | 355 kts | 217° |
| 2026-05-05 12:02 | 38.46948 | -9.28674 | 13892 ft | 358 kts | 218° |
| 2026-05-05 12:02 | 38.44863 | -9.30430 | 14379 ft | 359 kts | 218° |
| 2026-05-05 12:02 | 38.42769 | -9.32194 | 14834 ft | 362 kts | 217° |
| 2026-05-05 12:03 | 38.40662 | -9.33969 | 15295 ft | 364 kts | 217° |
| 2026-05-05 12:03 | 38.38546 | -9.35749 | 15767 ft | 366 kts | 217° |
| 2026-05-05 12:03 | 38.36415 | -9.37540 | 16236 ft | 368 kts | 217° |
| 2026-05-05 12:03 | 38.34275 | -9.39338 | 16692 ft | 370 kts | 217° |
| 2026-05-05 12:04 | 38.32149 | -9.41123 | 17150 ft | 372 kts | 217° |
| 2026-05-05 12:04 | 38.30686 | -9.42351 | 17454 ft | 373 kts | 217° |
| 2026-05-05 12:04 | 38.27801 | -9.44770 | 18063 ft | 376 kts | 217° |
| 2026-05-05 12:04 | 38.25610 | -9.46608 | 18461 ft | 379 kts | 217° |
| 2026-05-05 12:05 | 38.23402 | -9.48458 | 18872 ft | 381 kts | 217° |
| 2026-05-05 12:05 | 38.21906 | -9.49709 | 19167 ft | 381 kts | 217° |
| 2026-05-05 12:05 | 38.19684 | -9.51566 | 19589 ft | 383 kts | 217° |
| 2026-05-05 12:05 | 38.17457 | -9.53427 | 20010 ft | 384 kts | 217° |
| 2026-05-05 12:06 | 38.15249 | -9.55270 | 20435 ft | 386 kts | 217° |
| 2026-05-05 12:06 | 38.13001 | -9.57146 | 20855 ft | 387 kts | 217° |
| 2026-05-05 12:06 | 38.10748 | -9.59024 | 21288 ft | 389 kts | 217° |
| 2026-05-05 12:06 | 38.08483 | -9.60911 | 21730 ft | 390 kts | 217° |
| 2026-05-05 12:07 | 38.06206 | -9.62807 | 22145 ft | 392 kts | 217° |
| 2026-05-05 12:07 | 38.03921 | -9.64708 | 22584 ft | 394 kts | 217° |
| 2026-05-05 12:07 | 38.01624 | -9.66618 | 23004 ft | 396 kts | 217° |
| 2026-05-05 12:07 | 37.99314 | -9.68537 | 23432 ft | 397 kts | 217° |
| 2026-05-05 12:08 | 37.96996 | -9.70460 | 23845 ft | 399 kts | 217° |
| 2026-05-05 12:08 | 37.94670 | -9.72389 | 24232 ft | 400 kts | 217° |
| 2026-05-05 12:08 | 37.92339 | -9.74320 | 24630 ft | 400 kts | 217° |
| 2026-05-05 12:08 | 37.90006 | -9.76252 | 25019 ft | 401 kts | 217° |
| 2026-05-05 12:09 | 37.87666 | -9.78187 | 25392 ft | 403 kts | 217° |
| 2026-05-05 12:09 | 37.85317 | -9.80129 | 25777 ft | 403 kts | 217° |
| 2026-05-05 12:09 | 37.82967 | -9.82071 | 26147 ft | 404 kts | 217° |
| 2026-05-05 12:09 | 37.80608 | -9.84018 | 26504 ft | 406 kts | 217° |
| 2026-05-05 12:10 | 37.78234 | -9.85977 | 26843 ft | 408 kts | 217° |
| 2026-05-05 12:10 | 37.75855 | -9.87939 | 27251 ft | 407 kts | 217° |
| 2026-05-05 12:10 | 37.73481 | -9.89893 | 27618 ft | 408 kts | 218° |
| 2026-05-05 12:10 | 37.71097 | -9.91856 | 27962 ft | 410 kts | 218° |
| 2026-05-05 12:11 | 37.68707 | -9.93821 | 28312 ft | 411 kts | 218° |
| 2026-05-05 12:11 | 37.66332 | -9.95830 | 28648 ft | 410 kts | 220° |
| 2026-05-05 12:11 | 37.64073 | -9.98020 | 28973 ft | 409 kts | 224° |
| 2026-05-05 12:11 | 37.61975 | -10.00371 | 29309 ft | 408 kts | 228° |
| 2026-05-05 12:12 | 37.59990 | -10.02923 | 29628 ft | 407 kts | 231° |
| 2026-05-05 12:12 | 37.58148 | -10.05633 | 29961 ft | 407 kts | 234° |
| 2026-05-05 12:12 | 37.56394 | -10.08433 | 30279 ft | 408 kts | 235° |
| 2026-05-05 12:12 | 37.54629 | -10.11237 | 30535 ft | 409 kts | 235° |
| 2026-05-05 12:13 | 37.52849 | -10.14046 | 30805 ft | 411 kts | 234° |
| 2026-05-05 12:13 | 37.51059 | -10.16862 | 31048 ft | 413 kts | 234° |
| 2026-05-05 12:13 | 37.49253 | -10.19700 | 31257 ft | 416 kts | 234° |
| 2026-05-05 12:13 | 37.47437 | -10.22550 | 31487 ft | 419 kts | 234° |
| 2026-05-05 12:14 | 37.45608 | -10.25417 | 31744 ft | 420 kts | 234° |
| 2026-05-05 12:14 | 37.43774 | -10.28288 | 32005 ft | 422 kts | 234° |
| 2026-05-05 12:14 | 37.41930 | -10.31172 | 32250 ft | 424 kts | 234° |
| 2026-05-05 12:14 | 37.40081 | -10.34061 | 32486 ft | 425 kts | 234° |
| 2026-05-05 12:15 | 37.38220 | -10.36966 | 32709 ft | 427 kts | 234° |
| 2026-05-05 12:15 | 37.36354 | -10.39875 | 32905 ft | 428 kts | 234° |
| 2026-05-05 12:15 | 37.34481 | -10.42793 | 33091 ft | 429 kts | 234° |
| 2026-05-05 12:15 | 37.32602 | -10.45718 | 33254 ft | 431 kts | 234° |
| 2026-05-05 12:16 | 37.30718 | -10.48649 | 33402 ft | 432 kts | 234° |
| 2026-05-05 12:16 | 37.28823 | -10.51593 | 33544 ft | 433 kts | 234° |
| 2026-05-05 12:16 | 37.26955 | -10.54493 | 33668 ft | 433 kts | 234° |
| 2026-05-05 12:16 | 37.25058 | -10.57435 | 33832 ft | 433 kts | 234° |
| 2026-05-05 12:17 | 37.21246 | -10.63344 | 33963 ft | 438 kts | 233° |
| 2026-05-05 12:17 | 37.19330 | -10.66307 | 34115 ft | 437 kts | 233° |
| 2026-05-05 12:17 | 37.17413 | -10.69268 | 34279 ft | 437 kts | 233° |
| 2026-05-05 12:18 | 37.15499 | -10.72223 | 34423 ft | 437 kts | 233° |
| 2026-05-05 12:18 | 37.13583 | -10.75179 | 34554 ft | 437 kts | 233° |
| 2026-05-05 12:18 | 37.11668 | -10.78131 | 34693 ft | 436 kts | 233° |
| 2026-05-05 12:18 | 37.09753 | -10.81080 | 34834 ft | 436 kts | 233° |
| 2026-05-05 12:19 | 37.07839 | -10.84026 | 34971 ft | 436 kts | 233° |
| 2026-05-05 12:19 | 37.05926 | -10.86967 | 35113 ft | 436 kts | 233° |
| 2026-05-05 12:19 | 37.04012 | -10.89907 | 35247 ft | 435 kts | 233° |
| 2026-05-05 12:19 | 37.02101 | -10.92840 | 35376 ft | 435 kts | 233° |
| 2026-05-05 12:20 | 36.98266 | -10.98720 | 35580 ft | 436 kts | 233° |
| 2026-05-05 12:20 | 36.96372 | -11.01620 | 35716 ft | 436 kts | 233° |
| 2026-05-05 12:20 | 36.94452 | -11.04557 | 35790 ft | 437 kts | 233° |
| 2026-05-05 12:21 | 36.92526 | -11.07500 | 35907 ft | 437 kts | 233° |
| 2026-05-05 12:21 | 36.90604 | -11.10434 | 36037 ft | 436 kts | 233° |
| 2026-05-05 12:21 | 36.88682 | -11.13366 | 36161 ft | 436 kts | 233° |
| 2026-05-05 12:21 | 36.86760 | -11.16295 | 36284 ft | 436 kts | 233° |
| 2026-05-05 12:22 | 36.84839 | -11.19221 | 36414 ft | 436 kts | 233° |
| 2026-05-05 12:22 | 36.82918 | -11.22143 | 36524 ft | 435 kts | 233° |
| 2026-05-05 12:22 | 36.80995 | -11.25066 | 36641 ft | 435 kts | 233° |
| 2026-05-05 12:22 | 36.79075 | -11.27983 | 36757 ft | 435 kts | 233° |
| 2026-05-05 12:23 | 36.77155 | -11.30896 | 36875 ft | 435 kts | 233° |
| 2026-05-05 12:23 | 36.75231 | -11.33813 | 36942 ft | 436 kts | 232° |
| 2026-05-05 12:23 | 36.71375 | -11.39652 | 37154 ft | 436 kts | 232° |
| 2026-05-05 12:24 | 36.69450 | -11.42563 | 37258 ft | 436 kts | 232° |
| 2026-05-05 12:24 | 36.67521 | -11.45477 | 37352 ft | 435 kts | 232° |
| 2026-05-05 12:24 | 36.63666 | -11.51293 | 37544 ft | 435 kts | 232° |
| 2026-05-05 12:25 | 36.61736 | -11.54201 | 37652 ft | 435 kts | 232° |
| 2026-05-05 12:25 | 36.59808 | -11.57105 | 37758 ft | 435 kts | 232° |
| 2026-05-05 12:25 | 36.55951 | -11.62903 | 37955 ft | 435 kts | 232° |
| 2026-05-05 12:26 | 36.52088 | -11.68702 | 38146 ft | 435 kts | 232° |
| 2026-05-05 12:26 | 36.48230 | -11.74482 | 38326 ft | 434 kts | 232° |
| 2026-05-05 12:27 | 36.46300 | -11.77371 | 38427 ft | 434 kts | 232° |
| 2026-05-05 12:27 | 36.44370 | -11.80257 | 38512 ft | 434 kts | 232° |
| 2026-05-05 12:27 | 36.40508 | -11.86024 | 38690 ft | 434 kts | 232° |
| 2026-05-05 12:28 | 36.36644 | -11.91783 | 38816 ft | 434 kts | 232° |
| 2026-05-05 12:28 | 36.32804 | -11.97499 | 38944 ft | 434 kts | 232° |
| 2026-05-05 12:29 | 36.28933 | -12.03250 | 39054 ft | 434 kts | 232° |
| 2026-05-05 12:29 | 36.25046 | -12.09016 | 39106 ft | 436 kts | 232° |
| 2026-05-05 12:30 | 36.21150 | -12.14784 | 39212 ft | 436 kts | 232° |
| 2026-05-05 12:30 | 36.17251 | -12.20546 | 39316 ft | 437 kts | 232° |
| 2026-05-05 12:31 | 36.13346 | -12.26308 | 39419 ft | 437 kts | 232° |
| 2026-05-05 12:31 | 36.09438 | -12.32065 | 39505 ft | 437 kts | 232° |
| 2026-05-05 12:32 | 36.05525 | -12.37820 | 39602 ft | 437 kts | 232° |
| 2026-05-05 12:32 | 36.01607 | -12.43572 | 39652 ft | 439 kts | 232° |
| 2026-05-05 12:33 | 35.97670 | -12.49342 | 39738 ft | 439 kts | 232° |
| 2026-05-05 12:33 | 35.93760 | -12.55063 | 39832 ft | 439 kts | 232° |
| 2026-05-05 12:34 | 35.89818 | -12.60820 | 39916 ft | 439 kts | 231° |
| 2026-05-05 12:34 | 35.85870 | -12.66576 | 39992 ft | 439 kts | 231° |
| 2026-05-05 12:35 | 35.81923 | -12.72322 | 40059 ft | 439 kts | 231° |
| 2026-05-05 12:35 | 35.77972 | -12.78065 | 40147 ft | 439 kts | 231° |
| 2026-05-05 12:36 | 35.74010 | -12.83813 | 40180 ft | 441 kts | 231° |
| 2026-05-05 12:36 | 35.70038 | -12.89564 | 40256 ft | 441 kts | 231° |
| 2026-05-05 12:37 | 35.66068 | -12.95305 | 40333 ft | 441 kts | 231° |
| 2026-05-05 12:37 | 35.62093 | -13.01043 | 40404 ft | 441 kts | 231° |
| 2026-05-05 12:38 | 35.58116 | -13.06773 | 40476 ft | 441 kts | 231° |
| 2026-05-05 12:38 | 35.54137 | -13.12498 | 40541 ft | 441 kts | 231° |
| 2026-05-05 12:39 | 35.50148 | -13.18228 | 40563 ft | 442 kts | 231° |
| 2026-05-05 12:39 | 35.46154 | -13.23954 | 40632 ft | 442 kts | 231° |
| 2026-05-05 12:40 | 35.42159 | -13.29673 | 40697 ft | 442 kts | 231° |
| 2026-05-05 12:40 | 35.38157 | -13.35391 | 40756 ft | 442 kts | 231° |
| 2026-05-05 12:41 | 35.34157 | -13.41098 | 40813 ft | 442 kts | 231° |
| 2026-05-05 12:41 | 35.30152 | -13.46802 | 40881 ft | 441 kts | 231° |
| 2026-05-05 12:42 | 35.26173 | -13.52461 | 40903 ft | 441 kts | 231° |
| 2026-05-05 12:42 | 35.24173 | -13.55301 | 40683 ft | 440 kts | 231° |
| 2026-05-05 12:42 | 35.22171 | -13.58143 | 40126 ft | 442 kts | 231° |
| 2026-05-05 12:43 | 35.20155 | -13.61004 | 39370 ft | 446 kts | 231° |
| 2026-05-05 12:43 | 35.18126 | -13.63878 | 38819 ft | 444 kts | 230° |
| 2026-05-05 12:43 | 35.16117 | -13.66720 | 38258 ft | 440 kts | 231° |
| 2026-05-05 12:43 | 35.14119 | -13.69543 | 37616 ft | 438 kts | 231° |
| 2026-05-05 12:44 | 35.12126 | -13.72358 | 36945 ft | 438 kts | 231° |
| 2026-05-05 12:44 | 35.10131 | -13.75174 | 36274 ft | 438 kts | 231° |
| 2026-05-05 12:44 | 35.08135 | -13.77989 | 35597 ft | 438 kts | 231° |
| 2026-05-05 12:44 | 35.06139 | -13.80803 | 34944 ft | 438 kts | 231° |
| 2026-05-05 12:45 | 35.04142 | -13.83616 | 34269 ft | 438 kts | 231° |
| 2026-05-05 12:45 | 35.02147 | -13.86425 | 33523 ft | 438 kts | 231° |
| 2026-05-05 12:45 | 35.00159 | -13.89223 | 32811 ft | 435 kts | 231° |
| 2026-05-05 12:45 | 34.98169 | -13.92022 | 31968 ft | 437 kts | 231° |
| 2026-05-05 12:46 | 34.96174 | -13.94825 | 31187 ft | 437 kts | 231° |
| 2026-05-05 12:46 | 34.94188 | -13.97611 | 30622 ft | 434 kts | 231° |
| 2026-05-05 12:46 | 34.92211 | -14.00382 | 29906 ft | 433 kts | 231° |
| 2026-05-05 12:46 | 34.90244 | -14.03135 | 29346 ft | 428 kts | 231° |
| 2026-05-05 12:47 | 34.88298 | -14.05857 | 28935 ft | 424 kts | 231° |
| 2026-05-05 12:47 | 34.86360 | -14.08567 | 28519 ft | 425 kts | 231° |
| 2026-05-05 12:47 | 34.84445 | -14.11244 | 28131 ft | 424 kts | 231° |
| 2026-05-05 12:47 | 34.82511 | -14.13943 | 27749 ft | 422 kts | 231° |
| 2026-05-05 12:48 | 34.80589 | -14.16624 | 27369 ft | 419 kts | 231° |
| 2026-05-05 12:48 | 34.78677 | -14.19290 | 26977 ft | 417 kts | 231° |
| 2026-05-05 12:48 | 34.76774 | -14.21941 | 26612 ft | 415 kts | 230° |
| 2026-05-05 12:48 | 34.74880 | -14.24580 | 26215 ft | 412 kts | 230° |
| 2026-05-05 12:49 | 34.72998 | -14.27198 | 25722 ft | 410 kts | 230° |
| 2026-05-05 12:49 | 34.71128 | -14.29796 | 25320 ft | 405 kts | 230° |
| 2026-05-05 12:49 | 34.69278 | -14.32365 | 25204 ft | 406 kts | 230° |
| 2026-05-05 12:49 | 34.67407 | -14.34963 | 25183 ft | 409 kts | 230° |
| 2026-05-05 12:50 | 34.65532 | -14.37564 | 25182 ft | 409 kts | 230° |
| 2026-05-05 12:50 | 34.63655 | -14.40163 | 25166 ft | 409 kts | 230° |
| 2026-05-05 12:50 | 34.61779 | -14.42760 | 25181 ft | 409 kts | 230° |
| 2026-05-05 12:50 | 34.59899 | -14.45361 | 25181 ft | 409 kts | 230° |
| 2026-05-05 12:51 | 34.58022 | -14.47957 | 25177 ft | 409 kts | 230° |
| 2026-05-05 12:51 | 34.56146 | -14.50550 | 25181 ft | 409 kts | 230° |
| 2026-05-05 12:51 | 34.54262 | -14.53152 | 25181 ft | 409 kts | 230° |
| 2026-05-05 12:51 | 34.53016 | -14.54871 | 25181 ft | 409 kts | 230° |
| 2026-05-05 12:52 | 34.50501 | -14.58342 | 25180 ft | 409 kts | 230° |
| 2026-05-05 12:52 | 34.48619 | -14.60937 | 25181 ft | 410 kts | 230° |
| 2026-05-05 12:52 | 34.47371 | -14.62658 | 25181 ft | 410 kts | 230° |
| 2026-05-05 12:52 | 34.44853 | -14.66124 | 25178 ft | 410 kts | 230° |
| 2026-05-05 12:53 | 34.43606 | -14.67840 | 25178 ft | 410 kts | 230° |
| 2026-05-05 12:53 | 34.41723 | -14.70429 | 25179 ft | 410 kts | 230° |
| 2026-05-05 12:53 | 34.39832 | -14.73009 | 25178 ft | 410 kts | 229° |
| 2026-05-05 12:53 | 34.37845 | -14.75488 | 25178 ft | 410 kts | 227° |
| 2026-05-05 12:54 | 34.33903 | -14.80484 | 25161 ft | 410 kts | 228° |
| 2026-05-05 12:54 | 34.31935 | -14.82993 | 25169 ft | 411 kts | 228° |
| 2026-05-05 12:54 | 34.29966 | -14.85496 | 25170 ft | 411 kts | 228° |
| 2026-05-05 12:55 | 34.27993 | -14.87995 | 25173 ft | 411 kts | 228° |
| 2026-05-05 12:55 | 34.26019 | -14.90489 | 25170 ft | 410 kts | 228° |
| 2026-05-05 12:55 | 34.24043 | -14.92982 | 25170 ft | 411 kts | 228° |
| 2026-05-05 12:55 | 34.22066 | -14.95475 | 25167 ft | 411 kts | 228° |
| 2026-05-05 12:56 | 34.20084 | -14.97972 | 25173 ft | 411 kts | 227° |
| 2026-05-05 12:56 | 34.18104 | -15.00464 | 25170 ft | 411 kts | 227° |
| 2026-05-05 12:56 | 34.16149 | -15.02924 | 25171 ft | 411 kts | 227° |
| 2026-05-05 12:56 | 34.14168 | -15.05413 | 25170 ft | 411 kts | 227° |
| 2026-05-05 12:57 | 34.12185 | -15.07904 | 25170 ft | 411 kts | 227° |
| 2026-05-05 12:57 | 34.10203 | -15.10393 | 25170 ft | 411 kts | 227° |
| 2026-05-05 12:57 | 34.08219 | -15.12881 | 25171 ft | 411 kts | 227° |
| 2026-05-05 12:57 | 34.06235 | -15.15368 | 25170 ft | 411 kts | 227° |
| 2026-05-05 12:58 | 34.04250 | -15.17854 | 25172 ft | 411 kts | 227° |
| 2026-05-05 12:58 | 34.02259 | -15.20348 | 25169 ft | 414 kts | 227° |
| 2026-05-05 12:58 | 34.00264 | -15.22842 | 25170 ft | 413 kts | 227° |
| 2026-05-05 12:58 | 33.98271 | -15.25333 | 25169 ft | 412 kts | 227° |
| 2026-05-05 12:59 | 33.96279 | -15.27820 | 25168 ft | 413 kts | 227° |
| 2026-05-05 12:59 | 33.94286 | -15.30307 | 25168 ft | 413 kts | 227° |
| 2026-05-05 12:59 | 33.92294 | -15.32791 | 25120 ft | 411 kts | 227° |
| 2026-05-05 13:00 | 33.88336 | -15.37722 | 24324 ft | 408 kts | 227° |
| 2026-05-05 13:00 | 33.86374 | -15.40164 | 23858 ft | 404 kts | 227° |
| 2026-05-05 13:01 | 33.80566 | -15.47382 | 21976 ft | 395 kts | 227° |
| 2026-05-05 13:01 | 33.78684 | -15.49719 | 21393 ft | 393 kts | 227° |
| 2026-05-05 13:01 | 33.76760 | -15.52106 | 20896 ft | 390 kts | 227° |
| 2026-05-05 13:01 | 33.74880 | -15.54437 | 20303 ft | 387 kts | 227° |
| 2026-05-05 13:02 | 33.73033 | -15.56720 | 19695 ft | 385 kts | 227° |
| 2026-05-05 13:02 | 33.71183 | -15.59006 | 19316 ft | 378 kts | 227° |
| 2026-05-05 13:02 | 33.69344 | -15.61281 | 19193 ft | 380 kts | 227° |
| 2026-05-05 13:02 | 33.67496 | -15.63568 | 19166 ft | 383 kts | 227° |
| 2026-05-05 13:03 | 33.65636 | -15.65866 | 19165 ft | 382 kts | 227° |
| 2026-05-05 13:03 | 33.63789 | -15.68145 | 19164 ft | 380 kts | 227° |
| 2026-05-05 13:03 | 33.61942 | -15.70424 | 19168 ft | 382 kts | 227° |
| 2026-05-05 13:03 | 33.60081 | -15.72714 | 19160 ft | 385 kts | 227° |
| 2026-05-05 13:04 | 33.58224 | -15.74994 | 19157 ft | 380 kts | 227° |
| 2026-05-05 13:04 | 33.56383 | -15.77264 | 19159 ft | 381 kts | 227° |
| 2026-05-05 13:04 | 33.54525 | -15.79543 | 19156 ft | 383 kts | 227° |
| 2026-05-05 13:04 | 33.52633 | -15.81777 | 19157 ft | 381 kts | 226° |
| 2026-05-05 13:05 | 33.50731 | -15.83988 | 19158 ft | 382 kts | 226° |
| 2026-05-05 13:05 | 33.48823 | -15.86206 | 19157 ft | 383 kts | 226° |
| 2026-05-05 13:05 | 33.46941 | -15.88399 | 19157 ft | 381 kts | 226° |
| 2026-05-05 13:05 | 33.45041 | -15.90617 | 19157 ft | 382 kts | 226° |
| 2026-05-05 13:06 | 33.43139 | -15.92842 | 19149 ft | 384 kts | 226° |
| 2026-05-05 13:06 | 33.41222 | -15.95084 | 19158 ft | 386 kts | 226° |
| 2026-05-05 13:06 | 33.39307 | -15.97321 | 19157 ft | 385 kts | 226° |
| 2026-05-05 13:06 | 33.37393 | -15.99558 | 19154 ft | 385 kts | 226° |
| 2026-05-05 13:07 | 33.35482 | -16.01788 | 19154 ft | 382 kts | 226° |
| 2026-05-05 13:07 | 33.33577 | -16.04010 | 19149 ft | 382 kts | 226° |
| 2026-05-05 13:07 | 33.31683 | -16.06219 | 18914 ft | 380 kts | 226° |
| 2026-05-05 13:07 | 33.29792 | -16.08422 | 18533 ft | 379 kts | 226° |
| 2026-05-05 13:08 | 33.27911 | -16.10612 | 18014 ft | 375 kts | 226° |
| 2026-05-05 13:08 | 33.26083 | -16.12737 | 17777 ft | 356 kts | 226° |
| 2026-05-05 13:08 | 33.24357 | -16.14740 | 17570 ft | 336 kts | 226° |
| 2026-05-05 13:08 | 33.22733 | -16.16621 | 17414 ft | 317 kts | 226° |
| 2026-05-05 13:09 | 33.21189 | -16.18413 | 17243 ft | 300 kts | 226° |
| 2026-05-05 13:09 | 33.19736 | -16.20099 | 17070 ft | 282 kts | 226° |
| 2026-05-05 13:09 | 33.18350 | -16.21710 | 16641 ft | 274 kts | 226° |
| 2026-05-05 13:09 | 33.16991 | -16.23293 | 16084 ft | 271 kts | 227° |
| 2026-05-05 13:10 | 33.15651 | -16.24851 | 15508 ft | 269 kts | 226° |
| 2026-05-05 13:10 | 33.14313 | -16.26407 | 14962 ft | 266 kts | 226° |
| 2026-05-05 13:10 | 33.12980 | -16.27956 | 14325 ft | 268 kts | 226° |
| 2026-05-05 13:10 | 33.11647 | -16.29499 | 13791 ft | 265 kts | 225° |
| 2026-05-05 13:11 | 33.10329 | -16.31023 | 13206 ft | 262 kts | 225° |
| 2026-05-05 13:11 | 33.09029 | -16.32525 | 12614 ft | 259 kts | 225° |
| 2026-05-05 13:11 | 33.07730 | -16.34028 | 11979 ft | 259 kts | 225° |
| 2026-05-05 13:11 | 33.06430 | -16.35533 | 11278 ft | 262 kts | 225° |
| 2026-05-05 13:12 | 33.05127 | -16.37035 | 10769 ft | 258 kts | 224° |
| 2026-05-05 13:12 | 33.03839 | -16.38522 | 10208 ft | 256 kts | 225° |
| 2026-05-05 13:12 | 33.02565 | -16.39994 | 9564 ft | 256 kts | 224° |
| 2026-05-05 13:12 | 33.01291 | -16.41465 | 8982 ft | 253 kts | 224° |
| 2026-05-05 13:13 | 33.00030 | -16.42921 | 8359 ft | 251 kts | 224° |
| 2026-05-05 13:13 | 32.98778 | -16.44367 | 7830 ft | 248 kts | 224° |
| 2026-05-05 13:13 | 32.97545 | -16.45799 | 7486 ft | 246 kts | 224° |
| 2026-05-05 13:13 | 32.96388 | -16.47208 | 7396 ft | 236 kts | 224° |
| 2026-05-05 13:14 | 32.95210 | -16.48576 | 6916 ft | 238 kts | 223° |
| 2026-05-05 13:14 | 32.94006 | -16.49926 | 6398 ft | 238 kts | 222° |
| 2026-05-05 13:14 | 32.92797 | -16.51272 | 5965 ft | 236 kts | 221° |
| 2026-05-05 13:14 | 32.91769 | -16.52750 | 5716 ft | 232 kts | 241° |
| 2026-05-05 13:15 | 32.91390 | -16.54617 | 5343 ft | 237 kts | 270° |
| 2026-05-05 13:15 | 32.91860 | -16.56484 | 5177 ft | 241 kts | 301° |
| 2026-05-05 13:15 | 32.93114 | -16.57889 | 5426 ft | 255 kts | 335° |
| 2026-05-05 13:15 | 32.94827 | -16.58387 | 5435 ft | 263 kts | 3° |
| 2026-05-05 13:16 | 32.96519 | -16.57679 | 5629 ft | 260 kts | 32° |
| 2026-05-05 13:16 | 32.97910 | -16.56234 | 5377 ft | 267 kts | 45° |
| 2026-05-05 13:16 | 32.99449 | -16.54999 | 5168 ft | 262 kts | 36° |
| 2026-05-05 13:16 | 33.00699 | -16.53550 | 5137 ft | 242 kts | 54° |
| 2026-05-05 13:17 | 33.01476 | -16.51856 | 5265 ft | 234 kts | 79° |
| 2026-05-05 13:17 | 33.01513 | -16.49912 | 5771 ft | 240 kts | 104° |
| 2026-05-05 13:17 | 33.00929 | -16.47985 | 5605 ft | 254 kts | 115° |
| 2026-05-05 13:17 | 32.99933 | -16.46311 | 5315 ft | 246 kts | 142° |
| 2026-05-05 13:18 | 32.98423 | -16.45452 | 5081 ft | 241 kts | 169° |
| 2026-05-05 13:18 | 32.96794 | -16.45633 | 5017 ft | 236 kts | 201° |
| 2026-05-05 13:18 | 32.95444 | -16.46816 | 4998 ft | 249 kts | 229° |
| 2026-05-05 13:18 | 32.94362 | -16.48424 | 5001 ft | 247 kts | 223° |
| 2026-05-05 13:19 | 32.93152 | -16.49889 | 5017 ft | 249 kts | 224° |
| 2026-05-05 13:19 | 32.91942 | -16.51366 | 5009 ft | 249 kts | 223° |
| 2026-05-05 13:19 | 32.90755 | -16.52867 | 4980 ft | 250 kts | 231° |
| 2026-05-05 13:19 | 32.90088 | -16.54771 | 4997 ft | 256 kts | 260° |
| 2026-05-05 13:20 | 32.90255 | -16.56881 | 5004 ft | 259 kts | 289° |
| 2026-05-05 13:20 | 32.91232 | -16.58652 | 5010 ft | 261 kts | 319° |
| 2026-05-05 13:20 | 32.92820 | -16.59685 | 5007 ft | 264 kts | 345° |
| 2026-05-05 13:20 | 32.94640 | -16.59842 | 5000 ft | 264 kts | 4° |
| 2026-05-05 13:21 | 32.96503 | -16.59788 | 5005 ft | 267 kts | 3° |
| 2026-05-05 13:21 | 32.98342 | -16.59662 | 5009 ft | 260 kts | 10° |
| 2026-05-05 13:21 | 33.00011 | -16.58880 | 5011 ft | 258 kts | 35° |
| 2026-05-05 13:21 | 33.01238 | -16.57355 | 5011 ft | 258 kts | 63° |
| 2026-05-05 13:22 | 33.01710 | -16.55341 | 5005 ft | 251 kts | 92° |
| 2026-05-05 13:22 | 33.01294 | -16.53394 | 5005 ft | 242 kts | 123° |
| 2026-05-05 13:22 | 33.00088 | -16.51986 | 5011 ft | 247 kts | 152° |
| 2026-05-05 13:22 | 32.98475 | -16.51394 | 5016 ft | 247 kts | 174° |
| 2026-05-05 13:23 | 32.96784 | -16.51617 | 4999 ft | 245 kts | 198° |
| 2026-05-05 13:23 | 32.95276 | -16.52574 | 4995 ft | 249 kts | 211° |
| 2026-05-05 13:23 | 32.93774 | -16.53649 | 5014 ft | 255 kts | 209° |
| 2026-05-05 13:23 | 32.92244 | -16.54691 | 4999 ft | 250 kts | 207° |
| 2026-05-05 13:24 | 32.90750 | -16.55661 | 4989 ft | 241 kts | 207° |
| 2026-05-05 13:24 | 32.89294 | -16.56624 | 4786 ft | 239 kts | 208° |
| 2026-05-05 13:24 | 32.87840 | -16.57605 | 4320 ft | 240 kts | 206° |
| 2026-05-05 13:24 | 32.86398 | -16.58563 | 3845 ft | 241 kts | 208° |
| 2026-05-05 13:25 | 32.84993 | -16.59662 | 3309 ft | 245 kts | 214° |
| 2026-05-05 13:25 | 32.83715 | -16.61017 | 2780 ft | 248 kts | 217° |
| 2026-05-05 13:25 | 32.82396 | -16.62393 | 2215 ft | 251 kts | 214° |
| 2026-05-05 13:25 | 32.80942 | -16.63425 | 2034 ft | 237 kts | 200° |
| 2026-05-05 13:26 | 32.79444 | -16.64078 | 1999 ft | 226 kts | 193° |
| 2026-05-05 13:26 | 32.77925 | -16.64662 | 2006 ft | 231 kts | 194° |
| 2026-05-05 13:26 | 32.76433 | -16.65267 | 2000 ft | 223 kts | 195° |
| 2026-05-05 13:26 | 32.74930 | -16.65882 | 2005 ft | 232 kts | 195° |
| 2026-05-05 13:27 | 32.73434 | -16.66493 | 2006 ft | 219 kts | 194° |
| 2026-05-05 13:27 | 32.72044 | -16.67053 | 1992 ft | 203 kts | 193° |
| 2026-05-05 13:27 | 32.70773 | -16.67568 | 2004 ft | 183 kts | 194° |
| 2026-05-05 13:27 | 32.69624 | -16.68047 | 2001 ft | 173 kts | 193° |
| 2026-05-05 13:28 | 32.68453 | -16.68512 | 2003 ft | 180 kts | 193° |
| 2026-05-05 13:28 | 32.67267 | -16.68974 | 2000 ft | 179 kts | 193° |
| 2026-05-05 13:28 | 32.66119 | -16.69442 | 2003 ft | 169 kts | 193° |
| 2026-05-05 13:28 | 32.65022 | -16.69896 | 2029 ft | 170 kts | 192° |
| 2026-05-05 13:29 | 32.63875 | -16.70346 | 2008 ft | 175 kts | 195° |
| 2026-05-05 13:29 | 32.62773 | -16.71008 | 1917 ft | 179 kts | 213° |
| 2026-05-05 13:29 | 32.61888 | -16.71999 | 1694 ft | 173 kts | 230° |
| 2026-05-05 13:29 | 32.61262 | -16.73192 | 1500 ft | 174 kts | 246° |
| 2026-05-05 13:30 | 32.60891 | -16.74599 | 1468 ft | 175 kts | 262° |
| 2026-05-05 13:30 | 32.60822 | -16.75929 | 1475 ft | 156 kts | 276° |
| 2026-05-05 13:30 | 32.60983 | -16.77209 | 1720 ft | 165 kts | 288° |
| 2026-05-05 13:30 | 32.61436 | -16.78474 | 1439 ft | 163 kts | 305° |
| 2026-05-05 13:31 | 32.62121 | -16.79447 | 1190 ft | 145 kts | 325° |
| 2026-05-05 13:31 | 32.62990 | -16.80095 | 1314 ft | 155 kts | 340° |
| 2026-05-05 13:31 | 32.64024 | -16.80530 | 888 ft | 154 kts | 356° |
| 2026-05-05 13:31 | 32.65029 | -16.80602 | 651 ft | 145 kts | 11° |
| 2026-05-05 13:32 | 32.66021 | -16.80441 | 544 ft | 144 kts | 16° |
| 2026-05-05 13:32 | 32.66969 | -16.80115 | 576 ft | 141 kts | 22° |
| 2026-05-05 13:32 | 32.67816 | -16.79552 | 484 ft | 135 kts | 38° |
| 2026-05-05 13:32 | 32.68568 | -16.78844 | 329 ft | 138 kts | 43° |
| 2026-05-05 13:33 | 32.69247 | -16.78080 | 191 ft | 127 kts | 44° |
| 2026-05-05 13:33 | 32.69706 | -16.77539 | 182 ft | 50 kts | 44° |
| 2026-05-05 13:33 | 32.69863 | -16.77358 | 182 ft | 27 kts | 45° |
| 2026-05-05 13:33 | 32.69945 | -16.77252 | 182 ft | 9 kts | 63° |
| 2026-05-05 13:34 | 32.69939 | -16.77213 | 182 ft | 3 kts | 108° |
| 2026-05-05 13:34 | 32.69934 | -16.77202 | 182 ft | 1 kts | 115° |
| 2026-05-05 13:34 | 32.69933 | -16.77200 | 182 ft | 0 kts | 117° |
| 2026-05-05 13:34 | 32.69915 | -16.77185 | 182 ft | 10 kts | 148° |
| 2026-05-05 13:35 | 32.69867 | -16.77178 | 182 ft | 11 kts | 180° |
| 2026-05-05 13:35 | 32.69790 | -16.77240 | 182 ft | 13 kts | 226° |
| 2026-05-05 13:35 | 32.69734 | -16.77308 | 182 ft | 10 kts | 226° |
| 2026-05-05 13:35 | 32.69693 | -16.77358 | 182 ft | 7 kts | 226° |
| 2026-05-05 13:36 | 32.69669 | -16.77388 | 182 ft | 3 kts | 226° |
| 2026-05-05 13:36 | 32.69658 | -16.77401 | 182 ft | 2 kts | 226° |
| 2026-05-05 13:36 | 32.69644 | -16.77418 | 182 ft | 6 kts | 226° |
| 2026-05-05 13:36 | 32.69595 | -16.77479 | 182 ft | 14 kts | 226° |
| 2026-05-05 13:37 | 32.69574 | -16.77490 | 182 ft | 2 kts | 189° |
| 2026-05-05 13:37 | 32.69554 | -16.77479 | 182 ft | 5 kts | 156° |
| 2026-05-05 13:37 | 32.69539 | -16.77465 | 182 ft | 2 kts | 144° |
| 2026-05-05 13:37 | 32.69525 | -16.77452 | 182 ft | 0 kts | 139° |
| 2026-05-05 13:38 | 32.69519 | -16.77445 | 182 ft | 2 kts | 139° |
| 2026-05-05 13:38 | 32.69511 | -16.77438 | 182 ft | 0 kts | 139° |
| 2026-05-05 13:38 | 32.69510 | -16.77436 | 182 ft | 0 kts | 139° |